Time;durP1;ratioP1;P1;durP2;ratioP2;P2;SDS_P1;SDS_P2;PMS_P1;PMS_P2;Temp;Humidity;BMP_temperature;BMP_pressure;BME280_temperature;BME280_humidity;BME280_pressure;Samples;Min_cycle;Max_cycle;Signal;HPM_P1;HPM_P2
2022/05/04 00:01:32;;;;;;;9.60;2.15;;;9.80;99.90;;;;;;4983409;28;20089;-69
2022/05/04 00:03:58;;;;;;;8.30;1.35;;;9.70;99.90;;;;;;4976568;28;20027;-69
2022/05/04 00:06:24;;;;;;;5.45;1.10;;;9.70;99.90;;;;;;4983306;28;20166;-69
2022/05/04 00:08:50;;;;;;;8.43;1.55;;;9.60;99.90;;;;;;4982634;28;20109;-70
2022/05/04 00:11:15;;;;;;;5.95;2.22;;;9.60;99.90;;;;;;4978974;28;20681;-71
2022/05/04 00:13:41;;;;;;;9.32;1.63;;;9.60;99.90;;;;;;4977524;28;20031;-70
2022/05/04 00:16:07;;;;;;;2.97;1.20;;;9.50;99.90;;;;;;4981569;28;20042;-70
2022/05/04 00:18:32;;;;;;;6.13;1.13;;;9.50;99.90;;;;;;4982920;28;20034;-70
2022/05/04 00:20:58;;;;;;;5.55;1.27;;;9.40;99.90;;;;;;4983277;28;20038;-71
2022/05/04 00:23:25;;;;;;;4.40;1.23;;;9.50;99.90;;;;;;4980615;28;20525;-69
2022/05/04 00:25:51;;;;;;;5.88;2.13;;;9.40;99.90;;;;;;4979126;28;20030;-71
2022/05/04 00:28:16;;;;;;;6.18;1.30;;;9.40;99.90;;;;;;4978745;28;20027;-71
2022/05/04 00:30:42;;;;;;;3.55;1.10;;;9.30;99.90;;;;;;4980513;28;20055;-69
2022/05/04 00:33:08;;;;;;;5.05;0.90;;;9.30;99.90;;;;;;4981005;28;20035;-73
2022/05/04 00:35:34;;;;;;;5.60;1.38;;;9.30;99.90;;;;;;4980856;28;20053;-71
2022/05/04 00:38:00;;;;;;;5.82;1.33;;;9.30;99.90;;;;;;4979785;28;20039;-69
2022/05/04 00:40:26;;;;;;;3.60;0.90;;;9.30;99.90;;;;;;4981671;28;20039;-70
2022/05/04 00:42:52;;;;;;;5.03;1.27;;;9.30;99.90;;;;;;4976467;28;20031;-70
2022/05/04 00:45:18;;;;;;;5.07;1.67;;;9.20;99.90;;;;;;4978004;28;20353;-71
2022/05/04 00:47:43;;;;;;;9.13;1.35;;;9.20;99.90;;;;;;4973601;28;20030;-69
2022/05/04 00:50:10;;;;;;;6.28;1.45;;;9.30;99.90;;;;;;4978292;28;20084;-70
2022/05/04 00:52:38;;;;;;;8.40;1.70;;;9.30;99.90;;;;;;4975842;28;20046;-69
2022/05/04 00:55:06;;;;;;;4.28;0.98;;;9.30;99.90;;;;;;4982341;28;20418;-69
2022/05/04 01:00:19;;;;;;;6.45;1.75;;;9.30;99.90;;;;;;4973570;28;20178;-69
2022/05/04 01:02:45;;;;;;;5.40;1.55;;;9.30;99.90;;;;;;4977863;28;20406;-71
2022/05/04 01:05:11;;;;;;;6.70;1.90;;;9.40;99.90;;;;;;4976639;28;20035;-69
2022/05/04 01:07:41;;;;;;;5.53;1.20;;;9.40;99.90;;;;;;4980517;28;20038;-70
2022/05/04 01:10:08;;;;;;;3.45;1.08;;;9.40;99.90;;;;;;4977234;28;20117;-71
2022/05/04 01:12:35;;;;;;;11.90;1.40;;;9.30;99.90;;;;;;4980897;28;20483;-69
2022/05/04 01:15:01;;;;;;;5.38;1.58;;;9.30;99.90;;;;;;4979865;28;20038;-67
2022/05/04 01:17:27;;;;;;;7.45;1.55;;;9.20;99.90;;;;;;4980345;28;20382;-68
2022/05/04 01:19:55;;;;;;;3.90;0.95;;;9.20;99.90;;;;;;4981102;28;20078;-67
2022/05/04 01:22:24;;;;;;;12.38;1.27;;;9.20;99.90;;;;;;4981413;28;20426;-67
2022/05/04 01:24:50;;;;;;;10.27;2.53;;;9.20;99.90;;;;;;4980379;28;20114;-67
2022/05/04 01:27:17;;;;;;;3.38;1.25;;;9.20;99.90;;;;;;4977946;28;20041;-68
2022/05/04 01:29:42;;;;;;;9.82;1.73;;;9.20;99.90;;;;;;4981188;28;20837;-69
2022/05/04 01:32:08;;;;;;;10.60;2.50;;;9.20;99.90;;;;;;4982686;28;20041;-68
2022/05/04 01:34:34;;;;;;;10.32;1.38;;;9.10;99.90;;;;;;4977886;28;20117;-68
2022/05/04 01:37:01;;;;;;;5.70;1.55;;;9.20;99.90;;;;;;4983906;28;20042;-67
2022/05/04 01:39:26;;;;;;;6.22;1.20;;;9.20;99.90;;;;;;4977546;28;20046;-69
2022/05/04 01:42:05;;;;;;;6.07;1.35;;;9.20;99.90;;;;;;4976284;28;20528;-67
2022/05/04 01:44:33;;;;;;;6.57;1.08;;;9.20;99.90;;;;;;4976283;28;20054;-67
2022/05/04 01:46:59;;;;;;;3.65;1.20;;;9.20;99.90;;;;;;4979868;28;20475;-67
2022/05/04 01:49:25;;;;;;;4.60;1.27;;;9.20;99.90;;;;;;4979433;28;20506;-68
2022/05/04 01:51:51;;;;;;;10.27;1.45;;;9.30;99.90;;;;;;4980988;28;20041;-68
2022/05/04 01:54:16;;;;;;;8.90;1.30;;;9.20;99.90;;;;;;4979543;28;20560;-72
2022/05/04 01:56:42;;;;;;;7.80;1.35;;;9.20;99.90;;;;;;4980929;28;20038;-67
2022/05/04 01:59:07;;;;;;;10.48;1.70;;;9.20;99.90;;;;;;4978110;28;20505;-67
2022/05/04 02:01:34;;;;;;;6.53;1.45;;;9.20;99.90;;;;;;4979569;28;20072;-67
2022/05/04 02:04:00;;;;;;;5.88;1.48;;;9.20;99.90;;;;;;4982799;28;20031;-66
2022/05/04 02:06:27;;;;;;;7.80;2.40;;;9.10;99.90;;;;;;4977265;28;20038;-68
2022/05/04 02:08:52;;;;;;;6.93;1.30;;;9.20;99.90;;;;;;4977350;28;20034;-68
2022/05/04 02:11:18;;;;;;;5.10;2.00;;;9.20;99.90;;;;;;4976687;28;20394;-67
2022/05/04 02:13:44;;;;;;;5.75;1.55;;;9.20;99.90;;;;;;4978531;28;20102;-68
2022/05/04 02:16:10;;;;;;;12.15;1.85;;;9.10;99.90;;;;;;4981339;28;20035;-70
2022/05/04 02:18:35;;;;;;;9.40;1.60;;;9.10;99.90;;;;;;4977127;28;20035;-71
2022/05/04 02:21:01;;;;;;;7.13;1.48;;;9.00;99.90;;;;;;4976960;28;20704;-67
2022/05/04 02:23:27;;;;;;;8.35;1.92;;;9.00;99.90;;;;;;4977725;28;20051;-69
2022/05/04 02:25:53;;;;;;;6.53;1.60;;;8.90;99.90;;;;;;4980000;28;20525;-67
2022/05/04 02:28:19;;;;;;;3.75;0.98;;;8.90;99.90;;;;;;4980927;28;20502;-68
2022/05/04 02:30:44;;;;;;;13.05;1.77;;;8.90;99.90;;;;;;4976923;28;20042;-69
2022/05/04 02:33:11;;;;;;;8.45;2.00;;;8.80;99.90;;;;;;4977631;28;20034;-67
2022/05/04 02:38:21;;;;;;;8.45;1.70;;;8.70;99.90;;;;;;4978365;28;20065;-69
2022/05/04 02:40:48;;;;;;;6.82;1.23;;;8.70;99.90;;;;;;4980505;28;20418;-69
2022/05/04 02:43:13;;;;;;;8.02;1.02;;;8.60;99.90;;;;;;4979987;28;20512;-68
2022/05/04 02:45:39;;;;;;;5.35;1.33;;;8.70;99.90;;;;;;4978747;28;20073;-67
2022/05/04 02:48:06;;;;;;;7.18;0.95;;;8.60;99.90;;;;;;4980784;28;20030;-68
2022/05/04 02:50:31;;;;;;;8.65;1.35;;;8.50;99.90;;;;;;4980824;28;20495;-70
2022/05/04 02:52:57;;;;;;;3.08;0.82;;;8.50;99.90;;;;;;4983091;28;20058;-67
2022/05/04 02:55:23;;;;;;;4.65;1.00;;;8.40;99.90;;;;;;4978311;28;20034;-67
2022/05/04 02:57:48;;;;;;;6.63;1.40;;;8.40;99.90;;;;;;4978718;28;20041;-67
2022/05/04 03:00:14;;;;;;;16.10;1.83;;;8.30;99.90;;;;;;4987657;28;20097;-68
2022/05/04 03:02:40;;;;;;;4.85;1.42;;;8.30;99.90;;;;;;4987655;28;20038;-69
2022/05/04 03:05:08;;;;;;;7.45;1.58;;;8.20;99.90;;;;;;4981439;28;20043;-67
2022/05/04 03:07:34;;;;;;;21.67;1.98;;;8.20;99.90;;;;;;4980432;28;20133;-68
2022/05/04 03:10:00;;;;;;;7.25;1.50;;;8.20;99.90;;;;;;4980771;28;20057;-68
2022/05/04 03:12:26;;;;;;;13.05;2.42;;;8.20;99.90;;;;;;4983095;28;20487;-71
2022/05/04 03:14:52;;;;;;;6.50;1.00;;;8.20;99.90;;;;;;4983124;28;20034;-68
2022/05/04 03:17:18;;;;;;;4.53;1.27;;;8.10;99.90;;;;;;4980749;28;20043;-69
2022/05/04 03:19:45;;;;;;;4.80;1.15;;;8.10;99.90;;;;;;4979635;28;20090;-68
2022/05/04 03:22:11;;;;;;;6.82;1.85;;;8.10;99.90;;;;;;4979902;28;20736;-68
2022/05/04 03:24:37;;;;;;;2.92;0.88;;;8.10;99.90;;;;;;4978958;28;20073;-69
2022/05/04 03:27:03;;;;;;;4.45;1.38;;;8.00;99.90;;;;;;4984831;28;20387;-68
2022/05/04 03:29:28;;;;;;;3.97;1.20;;;8.00;99.90;;;;;;4981838;28;20034;-69
2022/05/04 03:31:54;;;;;;;9.70;1.52;;;8.00;99.90;;;;;;4979954;28;20525;-70
2022/05/04 03:34:20;;;;;;;4.47;1.10;;;7.90;99.90;;;;;;4985802;28;20207;-68
2022/05/04 03:36:46;;;;;;;6.95;1.17;;;7.90;99.90;;;;;;4974586;28;20043;-68
2022/05/04 03:39:12;;;;;;;7.93;1.38;;;7.80;99.90;;;;;;4982633;28;20064;-67
2022/05/04 03:41:40;;;;;;;6.05;1.70;;;7.80;99.90;;;;;;4980079;28;20046;-68
2022/05/04 03:44:06;;;;;;;8.98;1.83;;;7.80;99.90;;;;;;4971646;28;20114;-67
2022/05/04 03:46:46;;;;;;;8.45;1.42;;;7.80;99.90;;;;;;4979326;28;20039;-68
2022/05/04 03:49:13;;;;;;;8.25;1.75;;;7.80;99.90;;;;;;4972489;28;20509;-68
2022/05/04 03:51:39;;;;;;;5.43;1.13;;;7.80;99.90;;;;;;4976068;28;20368;-67
2022/05/04 03:54:05;;;;;;;5.78;1.60;;;7.70;99.90;;;;;;4983313;28;20036;-68
2022/05/04 03:56:31;;;;;;;4.75;1.05;;;7.70;99.90;;;;;;4978804;28;20088;-69
2022/05/04 03:58:56;;;;;;;8.35;1.23;;;7.60;99.90;;;;;;4984272;28;20046;-69
2022/05/04 04:01:22;;;;;;;8.30;1.27;;;7.60;99.90;;;;;;4980495;28;20815;-68
2022/05/04 04:03:48;;;;;;;6.65;1.48;;;7.50;99.90;;;;;;4981349;28;20483;-68
2022/05/04 04:06:14;;;;;;;8.73;1.73;;;7.50;99.90;;;;;;4987254;28;20027;-67
2022/05/04 04:08:39;;;;;;;4.05;0.93;;;7.50;99.90;;;;;;4982461;28;20034;-68
2022/05/04 04:11:05;;;;;;;4.05;1.02;;;7.40;99.90;;;;;;4976004;28;20058;-67
2022/05/04 04:13:31;;;;;;;12.63;2.10;;;7.30;99.90;;;;;;4983041;28;20035;-68
2022/05/04 04:15:57;;;;;;;6.20;2.03;;;7.30;99.90;;;;;;4970713;28;20037;-72
2022/05/04 04:18:25;;;;;;;7.70;1.90;;;7.20;99.90;;;;;;4983831;28;20035;-68
2022/05/04 04:23:37;;;;;;;7.03;1.48;;;7.20;99.90;;;;;;4974605;28;20085;-69
2022/05/04 04:26:04;;;;;;;8.77;2.08;;;7.10;99.90;;;;;;4982265;28;20034;-69
2022/05/04 04:28:30;;;;;;;16.83;1.73;;;7.10;99.90;;;;;;4978947;28;20026;-69
2022/05/04 04:30:56;;;;;;;2.90;1.40;;;7.10;99.90;;;;;;4980636;28;20081;-69
2022/05/04 04:33:26;;;;;;;4.38;1.00;;;7.10;99.90;;;;;;4978441;28;20044;-69
2022/05/04 04:35:52;;;;;;;11.03;2.90;;;7.00;99.90;;;;;;4979233;28;20035;-69
2022/05/04 04:38:18;;;;;;;7.05;2.17;;;7.00;99.90;;;;;;4979285;28;20380;-69
2022/05/04 04:40:44;;;;;;;6.25;1.70;;;7.00;99.90;;;;;;4979371;28;20041;-69
2022/05/04 04:43:10;;;;;;;4.53;1.48;;;7.00;99.90;;;;;;4977554;28;20119;-69
2022/05/04 04:45:36;;;;;;;12.95;3.03;;;7.00;99.90;;;;;;4982254;28;20085;-69
2022/05/04 04:48:02;;;;;;;7.82;1.45;;;7.00;99.90;;;;;;4977672;28;20027;-69
2022/05/04 04:50:27;;;;;;;8.77;1.55;;;7.00;99.90;;;;;;4978989;28;20049;-69
2022/05/04 04:52:53;;;;;;;5.97;1.88;;;7.10;99.90;;;;;;4979230;28;20033;-69
2022/05/04 04:55:19;;;;;;;9.80;1.58;;;7.10;99.90;;;;;;4979625;28;20404;-69
2022/05/04 04:57:45;;;;;;;7.85;1.60;;;7.10;99.90;;;;;;4979177;28;20042;-69
2022/05/04 05:00:11;;;;;;;12.40;1.67;;;7.10;99.90;;;;;;4977016;28;20066;-69
2022/05/04 05:02:37;;;;;;;4.93;1.25;;;7.10;99.90;;;;;;4981224;28;20042;-68
2022/05/04 05:05:03;;;;;;;8.10;1.65;;;7.20;99.90;;;;;;4978721;28;20563;-67
2022/05/04 05:07:29;;;;;;;7.90;1.42;;;7.20;99.90;;;;;;4980177;28;20479;-69
2022/05/04 05:09:56;;;;;;;8.18;1.52;;;7.20;99.90;;;;;;4979766;28;20041;-69
2022/05/04 05:12:21;;;;;;;8.35;2.78;;;7.20;99.90;;;;;;4977665;28;20130;-65
2022/05/04 05:17:33;;;;;;;9.75;1.60;;;7.40;99.90;;;;;;4980223;28;20041;-69
2022/05/04 05:19:58;;;;;;;10.45;2.75;;;7.40;99.90;;;;;;4978371;28;20054;-69
2022/05/04 05:22:24;;;;;;;16.77;2.63;;;7.50;99.90;;;;;;4979312;28;20043;-69
2022/05/04 05:24:50;;;;;;;5.97;1.75;;;7.60;99.90;;;;;;4978395;28;20502;-69
2022/05/04 05:27:15;;;;;;;9.18;1.88;;;7.60;99.90;;;;;;4981597;28;20058;-70
2022/05/04 05:29:41;;;;;;;5.78;1.25;;;7.80;99.90;;;;;;4978283;28;20408;-69
2022/05/04 05:32:07;;;;;;;8.82;2.78;;;7.80;99.90;;;;;;4980626;28;20502;-69
2022/05/04 05:34:34;;;;;;;10.95;1.70;;;8.00;99.90;;;;;;4976680;28;20034;-69
2022/05/04 05:37:00;;;;;;;10.30;1.63;;;8.20;99.90;;;;;;4979813;28;20038;-69
2022/05/04 05:39:25;;;;;;;8.02;2.30;;;8.30;99.90;;;;;;4977374;28;20057;-69
2022/05/04 05:41:52;;;;;;;6.75;1.60;;;8.40;99.90;;;;;;4977339;28;20423;-69
2022/05/04 05:44:17;;;;;;;6.97;1.40;;;8.60;99.90;;;;;;4976580;28;20447;-67
2022/05/04 05:46:43;;;;;;;7.88;2.22;;;9.00;99.90;;;;;;4980140;28;20088;-69
2022/05/04 05:49:08;;;;;;;12.93;2.05;;;10.20;99.90;;;;;;4976340;28;20049;-72
2022/05/04 05:51:34;;;;;;;3.55;0.98;;;11.50;99.90;;;;;;4978991;28;20037;-70
2022/05/04 05:53:59;;;;;;;4.43;0.90;;;12.70;99.90;;;;;;4975100;28;20042;-69
2022/05/04 05:56:25;;;;;;;10.48;1.75;;;14.00;99.90;;;;;;4978280;28;20089;-72
2022/05/04 05:58:51;;;;;;;4.30;1.15;;;15.10;98.90;;;;;;4978385;28;20045;-70
2022/05/04 06:01:16;;;;;;;5.05;1.35;;;15.60;97.30;;;;;;4978492;28;20034;-69
2022/05/04 06:03:42;;;;;;;4.28;1.27;;;15.50;96.50;;;;;;4978749;28;20035;-69
2022/05/04 06:06:09;;;;;;;13.13;1.42;;;15.60;96.60;;;;;;4976410;28;20041;-73
2022/05/04 06:08:34;;;;;;;7.57;1.63;;;16.00;95.70;;;;;;4979684;28;20118;-70
2022/05/04 06:11:00;;;;;;;6.13;1.45;;;16.40;94.90;;;;;;4975239;28;20114;-69
2022/05/04 06:13:26;;;;;;;5.90;0.85;;;17.20;92.90;;;;;;4978605;28;20074;-73
2022/05/04 06:15:51;;;;;;;6.63;1.40;;;18.00;91.40;;;;;;4978462;28;20053;-69
2022/05/04 06:18:17;;;;;;;4.80;1.10;;;18.50;88.10;;;;;;4978286;28;20039;-69
2022/05/04 06:20:43;;;;;;;5.95;1.45;;;19.40;85.10;;;;;;4979118;28;20042;-70
2022/05/04 06:23:08;;;;;;;7.75;1.85;;;19.10;79.70;;;;;;4976929;28;20045;-74
2022/05/04 06:25:35;;;;;;;6.55;1.40;;;19.40;81.80;;;;;;4980602;28;20038;-72
2022/05/04 06:28:01;;;;;;;7.65;1.25;;;19.80;79.20;;;;;;4977197;28;20038;-68
2022/05/04 06:35:55;;;;;;;4.80;1.25;;;21.20;70.90;;;;;;4977412;28;20045;-72
2022/05/04 06:38:21;;;;;;;7.43;1.38;;;21.30;68.10;;;;;;4983505;28;20035;-68
2022/05/04 06:40:46;;;;;;;3.70;1.15;;;21.20;68.90;;;;;;4976975;28;20618;-73
2022/05/04 06:43:12;;;;;;;4.60;1.40;;;21.10;67.60;;;;;;4971653;28;20419;-71
2022/05/04 06:45:38;;;;;;;6.93;1.90;;;20.90;67.80;;;;;;4975990;28;20039;-71
2022/05/04 06:48:04;;;;;;;5.47;1.40;;;21.20;65.20;;;;;;4976069;28;20039;-72
2022/05/04 06:50:30;;;;;;;4.47;1.50;;;20.90;65.20;;;;;;4971857;28;20035;-72
2022/05/04 06:52:56;;;;;;;4.40;1.35;;;20.70;65.30;;;;;;4971489;28;20344;-72
2022/05/04 06:55:21;;;;;;;4.97;1.10;;;21.20;66.60;;;;;;4973071;28;20528;-70
2022/05/04 06:57:47;;;;;;;6.20;1.58;;;21.50;66.40;;;;;;4972530;28;20062;-70
2022/05/04 07:00:13;;;;;;;3.50;1.60;;;21.70;63.20;;;;;;4973052;28;20085;-70
2022/05/04 07:02:39;;;;;;;7.38;1.50;;;21.80;63.30;;;;;;4973120;28;20038;-72
2022/05/04 07:05:05;;;;;;;3.92;1.02;;;22.00;62.60;;;;;;4978091;28;20034;-72
2022/05/04 07:07:31;;;;;;;5.72;1.45;;;22.40;60.90;;;;;;4975355;28;20030;-71
2022/05/04 07:09:58;;;;;;;11.35;2.05;;;22.70;60.60;;;;;;4964065;28;20604;-72
2022/05/04 07:12:24;;;;;;;10.43;1.75;;;22.80;60.50;;;;;;4967757;28;20181;-67
2022/05/04 07:14:51;;;;;;;6.55;1.48;;;23.00;60.60;;;;;;4970338;28;20034;-71
2022/05/04 07:17:18;;;;;;;6.15;1.60;;;22.80;59.80;;;;;;4968479;28;20186;-72
2022/05/04 07:19:43;;;;;;;13.23;2.35;;;22.60;60.10;;;;;;4968375;28;20039;-71
2022/05/04 07:22:09;;;;;;;6.63;1.30;;;22.80;59.20;;;;;;4969585;28;20046;-69
2022/05/04 07:24:34;;;;;;;4.60;1.52;;;22.60;59.70;;;;;;4976180;28;20640;-70
2022/05/04 07:27:00;;;;;;;6.80;1.50;;;22.30;60.90;;;;;;4979099;28;20036;-70
2022/05/04 07:29:26;;;;;;;5.00;1.50;;;22.80;58.10;;;;;;4975708;28;20104;-71
2022/05/04 07:31:51;;;;;;;8.32;2.33;;;22.70;56.80;;;;;;4979274;28;20043;-69
2022/05/04 07:34:19;;;;;;;10.00;1.63;;;22.40;58.00;;;;;;4979248;28;20034;-70
2022/05/04 07:36:46;;;;;;;2.83;1.23;;;22.10;57.20;;;;;;4968396;28;20043;-69
2022/05/04 07:44:40;;;;;;;6.05;1.70;;;20.60;61.20;;;;;;4976749;28;20162;-71
2022/05/04 07:47:06;;;;;;;9.15;1.95;;;20.40;60.30;;;;;;4976909;28;20042;-71
2022/05/04 07:49:32;;;;;;;6.00;1.63;;;20.20;61.50;;;;;;4976249;28;20037;-70
2022/05/04 07:51:58;;;;;;;5.90;1.90;;;19.50;63.60;;;;;;4980927;28;20117;-72
2022/05/04 07:54:23;;;;;;;4.38;1.60;;;19.40;62.90;;;;;;4973053;28;20443;-71
2022/05/04 07:56:49;;;;;;;8.80;2.13;;;18.70;64.10;;;;;;4981323;28;20117;-71
2022/05/04 07:59:15;;;;;;;10.68;1.92;;;18.60;64.50;;;;;;4978511;28;20047;-72
2022/05/04 08:04:24;;;;;;;12.77;1.80;;;17.90;67.00;;;;;;4973320;28;20426;-72
2022/05/04 08:06:50;;;;;;;8.85;2.75;;;18.00;67.90;;;;;;4973372;28;20035;-71
2022/05/04 08:09:16;;;;;;;5.82;1.55;;;18.10;65.90;;;;;;4976559;28;20271;-71
2022/05/04 08:11:43;;;;;;;5.82;1.75;;;17.70;67.20;;;;;;4975820;28;20037;-70
2022/05/04 08:14:10;;;;;;;3.25;1.60;;;17.60;69.40;;;;;;4971708;28;20031;-74
2022/05/04 08:16:36;;;;;;;3.08;1.75;;;17.70;67.70;;;;;;4971862;28;20483;-71
2022/05/04 08:19:03;;;;;;;6.70;1.83;;;17.20;68.10;;;;;;4970590;28;20043;-72
2022/05/04 08:21:29;;;;;;;4.90;1.50;;;16.80;69.80;;;;;;4971201;28;20062;-70
2022/05/04 08:23:54;;;;;;;6.93;1.40;;;16.70;71.00;;;;;;4970604;28;20070;-71
2022/05/04 08:26:20;;;;;;;8.85;1.92;;;16.70;71.60;;;;;;4971987;28;20037;-71
2022/05/04 08:28:46;;;;;;;5.45;1.58;;;16.40;71.00;;;;;;4971550;28;21458;-71
2022/05/04 08:31:12;;;;;;;8.20;1.77;;;16.10;71.80;;;;;;4969977;28;20031;-69
2022/05/04 08:33:37;;;;;;;4.47;1.35;;;15.80;72.50;;;;;;4970721;28;20035;-72
2022/05/04 08:36:03;;;;;;;4.55;1.42;;;15.70;73.70;;;;;;4970330;28;20035;-72
2022/05/04 08:38:29;;;;;;;8.55;1.85;;;15.60;74.30;;;;;;4965205;28;20038;-70
2022/05/04 08:40:57;;;;;;;5.03;1.50;;;15.50;74.90;;;;;;4970383;28;20048;-71
2022/05/04 08:43:26;;;;;;;3.22;1.75;;;15.60;75.30;;;;;;4964719;28;20097;-71
2022/05/04 08:45:53;;;;;;;7.82;2.25;;;15.60;75.30;;;;;;4972168;28;20569;-70
2022/05/04 08:48:20;;;;;;;9.15;2.30;;;15.70;76.30;;;;;;4970887;28;20035;-70
2022/05/04 08:50:46;;;;;;;6.80;1.65;;;15.70;76.70;;;;;;4972781;28;20086;-71
2022/05/04 08:53:13;;;;;;;4.25;1.60;;;15.80;75.80;;;;;;4973064;28;20038;-71
2022/05/04 08:55:39;;;;;;;6.00;1.48;;;15.80;74.70;;;;;;4970744;28;20170;-70
2022/05/04 08:58:06;;;;;;;10.95;1.70;;;16.00;75.30;;;;;;4968725;28;20034;-71
2022/05/04 09:00:32;;;;;;;7.20;1.77;;;16.10;75.30;;;;;;4973184;28;20067;-72
2022/05/04 09:02:58;;;;;;;5.03;1.30;;;16.40;74.10;;;;;;4968149;28;20043;-69
2022/05/04 09:05:25;;;;;;;5.30;1.80;;;16.30;73.10;;;;;;4968183;28;20041;-70
2022/05/04 09:07:53;;;;;;;6.03;1.75;;;16.40;74.70;;;;;;4968111;28;20047;-70
2022/05/04 09:10:26;;;;;;;4.35;1.63;;;16.50;73.30;;;;;;4973003;28;20122;-70
2022/05/04 09:12:54;;;;;;;5.53;1.95;;;16.30;74.00;;;;;;4969215;28;20418;-70
2022/05/04 09:15:27;;;;;;;7.72;2.15;;;16.00;75.80;;;;;;4967804;28;20038;-69
2022/05/04 09:18:01;;;;;;;7.93;2.20;;;15.90;75.60;;;;;;4967868;28;20466;-70
2022/05/04 09:23:30;;;;;;;8.60;2.13;;;16.20;77.30;;;;;;4971108;28;20115;-69
2022/05/04 09:25:58;;;;;;;5.40;1.52;;;16.20;76.70;;;;;;4972332;28;20125;-71
2022/05/04 09:28:26;;;;;;;9.20;2.20;;;16.30;75.30;;;;;;4972657;28;20038;-69
2022/05/04 09:31:13;;;;;;;6.60;1.50;;;16.10;76.40;;;;;;4972109;28;20038;-69
2022/05/04 09:33:38;;;;;;;10.02;1.35;;;16.20;75.70;;;;;;4968160;28;20060;-69
2022/05/04 09:36:05;;;;;;;5.43;1.70;;;16.00;74.70;;;;;;4965698;28;20046;-69
2022/05/04 09:46:50;;;;;;;7.43;2.15;;;15.80;75.80;;;;;;4965748;28;20045;-71
2022/05/04 09:49:18;;;;;;;5.90;2.30;;;15.80;75.50;;;;;;4970063;28;20034;-71
2022/05/04 09:51:50;;;;;;;6.68;1.90;;;15.70;76.80;;;;;;4968479;28;20041;-71
2022/05/04 09:54:17;;;;;;;6.20;1.95;;;15.90;78.40;;;;;;4971401;28;20042;-73
2022/05/04 09:56:49;;;;;;;5.30;1.90;;;15.70;76.60;;;;;;4965712;28;20033;-71
2022/05/04 09:59:17;;;;;;;4.18;1.52;;;15.50;75.10;;;;;;4971660;28;20035;-70
2022/05/04 10:01:43;;;;;;;6.47;2.17;;;15.40;76.40;;;;;;4970321;28;20027;-70
2022/05/04 10:04:10;;;;;;;7.90;2.05;;;15.40;77.50;;;;;;4969861;28;20780;-70
2022/05/04 10:06:36;;;;;;;5.13;1.92;;;15.50;77.80;;;;;;4968867;28;20487;-72
2022/05/04 10:09:04;;;;;;;10.10;2.00;;;15.70;79.10;;;;;;4965585;28;20050;-70
2022/05/04 10:11:30;;;;;;;10.63;2.30;;;16.00;79.80;;;;;;4967289;28;20054;-71
2022/05/04 10:14:02;;;;;;;8.55;2.30;;;16.10;77.30;;;;;;4964903;28;20133;-72
2022/05/04 10:16:31;;;;;;;7.43;1.90;;;16.40;77.90;;;;;;4965277;28;20045;-71
2022/05/04 10:19:00;;;;;;;4.82;1.95;;;16.70;77.30;;;;;;4972298;28;20074;-71
2022/05/04 10:21:26;;;;;;;6.70;2.17;;;16.80;75.10;;;;;;4967174;28;20042;-70
2022/05/04 10:23:57;;;;;;;6.10;3.42;;;16.70;74.90;;;;;;4968246;28;20027;-68
2022/05/04 10:26:41;;;;;;;7.50;2.50;;;16.80;74.80;;;;;;4966639;28;20038;-72
2022/05/04 10:32:30;;;;;;;7.82;2.30;;;16.90;74.30;;;;;;4966088;28;20041;-70
2022/05/04 10:35:40;;;;;;;9.25;2.58;;;17.00;74.20;;;;;;4972911;28;20088;-72
2022/05/04 10:38:12;;;;;;;;;;;17.10;75.10;;;;;;4960821;28;20041;-68
2022/05/04 10:40:43;;;;;;;5.80;2.35;;;17.20;74.10;;;;;;4970437;28;19922;-73
2022/05/04 10:43:10;;;;;;;11.50;2.17;;;17.30;74.10;;;;;;4972267;28;20125;-72
2022/05/04 10:45:40;;;;;;;6.05;2.40;;;17.20;73.80;;;;;;4969796;28;20062;-70
2022/05/04 10:48:18;;;;;;;5.55;2.38;;;16.80;74.70;;;;;;4971624;28;20175;-70
2022/05/04 10:50:55;;;;;;;6.25;2.58;;;16.40;74.50;;;;;;4975168;28;20101;-77
2022/05/04 10:53:24;;;;;;;11.00;3.67;;;16.40;76.30;;;;;;4966042;28;20061;-69
2022/05/04 10:56:00;;;;;;;9.38;2.55;;;16.30;75.00;;;;;;4967935;28;20034;-68
2022/05/04 10:58:59;;;;;;;9.20;2.67;;;16.30;75.20;;;;;;4967248;28;20034;-68
2022/05/04 11:01:31;;;;;;;8.57;2.92;;;16.50;74.80;;;;;;4967828;28;20058;-71
2022/05/04 11:04:09;;;;;;;8.48;2.53;;;16.70;75.00;;;;;;4962316;28;20089;-71
2022/05/04 11:06:35;;;;;;;6.35;2.38;;;16.60;75.50;;;;;;4973648;28;20619;-69
2022/05/04 11:09:26;;;;;;;7.63;2.55;;;16.80;75.50;;;;;;4975456;28;20038;-69
2022/05/04 11:11:54;;;;;;;7.07;2.47;;;16.80;74.50;;;;;;4964912;28;20066;-69
2022/05/04 11:14:24;;;;;;;5.05;2.30;;;16.80;75.60;;;;;;4973389;28;20498;-71
2022/05/04 11:16:51;;;;;;;6.82;2.25;;;17.20;75.90;;;;;;4970437;28;20555;-70
2022/05/04 11:19:21;;;;;;;9.57;2.63;;;17.20;74.40;;;;;;4972028;28;20050;-69
2022/05/04 11:21:48;;;;;;;6.32;2.72;;;17.20;74.40;;;;;;4974536;28;20034;-70
2022/05/04 11:24:15;;;;;;;9.20;2.83;;;17.10;73.80;;;;;;4974119;28;20030;-69
2022/05/04 11:26:45;;;;;;;5.13;2.53;;;16.90;74.30;;;;;;4970333;28;20030;-73
2022/05/04 11:29:15;;;;;;;10.23;3.00;;;16.90;74.10;;;;;;4967318;28;20054;-69
2022/05/04 11:31:52;;;;;;;9.37;2.77;;;16.90;74.80;;;;;;4972575;28;20058;-69
2022/05/04 11:34:18;;;;;;;6.05;2.10;;;17.00;74.70;;;;;;4971520;28;20039;-69
2022/05/04 11:36:46;;;;;;;7.47;3.25;;;17.10;75.10;;;;;;4974791;28;20515;-70
2022/05/04 11:39:20;;;;;;;8.95;2.35;;;17.20;75.00;;;;;;4972640;28;20049;-69
2022/05/04 11:41:47;;;;;;;9.48;2.58;;;17.10;75.20;;;;;;4971550;28;20023;-69
2022/05/04 11:44:13;;;;;;;11.00;2.85;;;17.00;74.70;;;;;;4969837;28;20030;-70
2022/05/04 11:46:43;;;;;;;6.78;2.85;;;16.90;75.40;;;;;;4973644;28;20469;-70
2022/05/04 11:49:10;;;;;;;14.20;3.70;;;17.00;75.40;;;;;;4970983;28;20050;-69
2022/05/04 11:51:35;;;;;;;9.95;3.72;;;16.90;75.50;;;;;;4973408;28;20504;-70
2022/05/04 11:54:02;;;;;;;7.75;3.15;;;16.80;77.00;;;;;;4966823;28;20049;-69
2022/05/04 11:56:28;;;;;;;10.65;3.35;;;16.80;78.10;;;;;;4974045;28;20064;-69
2022/05/04 11:58:53;;;;;;;7.10;2.83;;;16.80;77.90;;;;;;4971000;28;20027;-69
2022/05/04 12:01:19;;;;;;;8.95;3.08;;;16.90;77.30;;;;;;4965820;28;20031;-69
2022/05/04 12:03:45;;;;;;;9.45;2.72;;;16.90;77.00;;;;;;4973796;28;20045;-72
2022/05/04 12:06:13;;;;;;;12.88;3.33;;;16.90;78.20;;;;;;4971736;28;20130;-70
2022/05/04 12:08:40;;;;;;;9.65;2.65;;;17.00;78.30;;;;;;4967405;28;20027;-68
2022/05/04 12:11:07;;;;;;;6.22;2.95;;;17.10;77.00;;;;;;4968547;28;20043;-70
2022/05/04 12:13:37;;;;;;;8.55;3.08;;;16.90;77.20;;;;;;4964982;28;20035;-69
2022/05/04 12:16:03;;;;;;;6.65;3.15;;;17.00;78.60;;;;;;4967310;28;20055;-69
2022/05/04 12:18:32;;;;;;;12.73;4.22;;;17.20;77.70;;;;;;4968714;28;20035;-69
2022/05/04 12:21:08;;;;;;;11.63;3.42;;;17.20;77.10;;;;;;4966667;28;20039;-69
2022/05/04 12:23:35;;;;;;;13.02;3.15;;;17.10;76.80;;;;;;4969599;28;20038;-69
2022/05/04 12:26:01;;;;;;;9.43;2.67;;;17.00;77.10;;;;;;4967927;28;20034;-69
2022/05/04 12:28:27;;;;;;;11.40;2.63;;;16.80;77.80;;;;;;4972584;28;20054;-69
2022/05/04 12:33:38;;;;;;;7.60;3.13;;;17.00;77.50;;;;;;4968166;28;20054;-71
2022/05/04 12:36:09;;;;;;;8.50;3.10;;;16.90;76.20;;;;;;4963853;28;20046;-71
2022/05/04 12:38:45;;;;;;;6.32;2.42;;;17.10;75.60;;;;;;4965746;28;20039;-71
2022/05/04 12:41:12;;;;;;;6.55;2.15;;;17.20;74.70;;;;;;4971179;28;20026;-69
2022/05/04 12:43:38;;;;;;;6.53;2.45;;;17.30;72.90;;;;;;4970582;28;20035;-69
2022/05/04 12:46:15;;;;;;;4.13;2.17;;;17.30;72.10;;;;;;4974730;28;20727;-69
2022/05/04 12:48:42;;;;;;;6.82;2.47;;;17.20;71.30;;;;;;4968260;28;20037;-69
2022/05/04 12:51:09;;;;;;;5.60;2.30;;;17.10;70.70;;;;;;4968612;28;20026;-71
2022/05/04 12:53:35;;;;;;;5.60;2.53;;;17.10;73.90;;;;;;4973521;28;20105;-71
2022/05/04 12:58:45;;;;;;;6.32;2.45;;;17.30;70.80;;;;;;4969241;28;20042;-69
2022/05/04 13:01:11;;;;;;;7.38;2.35;;;17.40;71.70;;;;;;4968942;28;20039;-70
2022/05/04 13:03:36;;;;;;;9.07;3.17;;;17.60;72.60;;;;;;4974059;28;20351;-74
2022/05/04 13:06:03;;;;;;;7.50;2.42;;;17.70;71.90;;;;;;4969986;28;20085;-70
2022/05/04 13:08:28;;;;;;;5.18;2.72;;;17.70;72.10;;;;;;4970773;28;20100;-69
2022/05/04 13:10:55;;;;;;;7.15;2.55;;;17.80;72.30;;;;;;4972336;28;20035;-69
2022/05/04 13:13:22;;;;;;;5.65;1.90;;;17.90;72.00;;;;;;4974720;28;20046;-71
2022/05/04 13:15:51;;;;;;;14.50;2.67;;;17.90;72.40;;;;;;4972096;28;20419;-71
2022/05/04 13:18:16;;;;;;;8.45;2.40;;;17.80;71.50;;;;;;4967185;28;20039;-72
2022/05/04 13:20:43;;;;;;;7.70;2.85;;;17.70;72.80;;;;;;4974759;28;20038;-68
2022/05/04 13:23:08;;;;;;;7.28;3.13;;;17.80;72.90;;;;;;4976054;28;20085;-70
2022/05/04 13:25:34;;;;;;;4.38;2.25;;;17.80;72.90;;;;;;4972011;28;20035;-70
2022/05/04 13:28:00;;;;;;;9.32;2.42;;;18.00;71.80;;;;;;4965488;28;20039;-70
2022/05/04 13:30:26;;;;;;;10.73;2.55;;;18.00;72.30;;;;;;4973104;28;20127;-69
2022/05/04 13:32:51;;;;;;;4.88;2.33;;;18.10;72.30;;;;;;4969339;28;20534;-69
2022/05/04 13:35:17;;;;;;;11.73;2.83;;;18.20;72.10;;;;;;4970000;28;20027;-70